sensor_id;sensor_type;location;lat;lon;timestamp;temperature;humidity
39777;DHT22;25453;48.162;14.510;2023-09-12T00:01:16;21.00;69.60
39777;DHT22;25453;48.162;14.510;2023-09-12T00:03:43;21.00;69.90
39777;DHT22;25453;48.162;14.510;2023-09-12T00:06:10;21.00;70.20
39777;DHT22;25453;48.162;14.510;2023-09-12T00:08:37;21.00;70.30
39777;DHT22;25453;48.162;14.510;2023-09-12T00:11:07;21.10;70.10
39777;DHT22;25453;48.162;14.510;2023-09-12T00:13:38;21.10;69.90
39777;DHT22;25453;48.162;14.510;2023-09-12T00:16:06;21.00;70.00
39777;DHT22;25453;48.162;14.510;2023-09-12T00:18:33;21.00;70.10
39777;DHT22;25453;48.162;14.510;2023-09-12T00:21:01;20.90;70.30
39777;DHT22;25453;48.162;14.510;2023-09-12T00:23:29;20.90;70.50
39777;DHT22;25453;48.162;14.510;2023-09-12T00:25:57;20.90;70.50
39777;DHT22;25453;48.162;14.510;2023-09-12T00:28:25;20.80;70.60
39777;DHT22;25453;48.162;14.510;2023-09-12T00:30:52;20.90;71.00
39777;DHT22;25453;48.162;14.510;2023-09-12T00:33:19;21.00;71.10
39777;DHT22;25453;48.162;14.510;2023-09-12T00:35:47;21.00;70.80
39777;DHT22;25453;48.162;14.510;2023-09-12T00:38:14;21.00;70.70
39777;DHT22;25453;48.162;14.510;2023-09-12T00:40:41;21.00;70.80
39777;DHT22;25453;48.162;14.510;2023-09-12T00:43:08;21.00;70.80
39777;DHT22;25453;48.162;14.510;2023-09-12T00:45:37;21.00;70.90
39777;DHT22;25453;48.162;14.510;2023-09-12T00:48:05;21.00;71.00
39777;DHT22;25453;48.162;14.510;2023-09-12T00:50:33;21.00;71.10
39777;DHT22;25453;48.162;14.510;2023-09-12T00:53:03;21.00;70.90
39777;DHT22;25453;48.162;14.510;2023-09-12T00:55:33;21.00;70.70
39777;DHT22;25453;48.162;14.510;2023-09-12T00:58:01;21.00;70.70
39777;DHT22;25453;48.162;14.510;2023-09-12T01:00:29;20.90;70.70
39777;DHT22;25453;48.162;14.510;2023-09-12T01:02:57;20.90;70.60
39777;DHT22;25453;48.162;14.510;2023-09-12T01:05:27;20.90;70.80
39777;DHT22;25453;48.162;14.510;2023-09-12T01:07:55;20.90;71.10
39777;DHT22;25453;48.162;14.510;2023-09-12T01:10:23;21.00;71.00
39777;DHT22;25453;48.162;14.510;2023-09-12T01:12:50;20.90;70.60
39777;DHT22;25453;48.162;14.510;2023-09-12T01:15:18;20.90;70.50
39777;DHT22;25453;48.162;14.510;2023-09-12T01:17:46;20.80;70.50
39777;DHT22;25453;48.162;14.510;2023-09-12T01:20:24;20.80;70.60
39777;DHT22;25453;48.162;14.510;2023-09-12T01:28:34;20.60;71.10
39777;DHT22;25453;48.162;14.510;2023-09-12T01:31:03;20.60;71.20
39777;DHT22;25453;48.162;14.510;2023-09-12T01:33:30;20.50;71.20
39777;DHT22;25453;48.162;14.510;2023-09-12T01:35:58;20.50;71.40
39777;DHT22;25453;48.162;14.510;2023-09-12T01:38:25;20.50;71.40
39777;DHT22;25453;48.162;14.510;2023-09-12T01:40:53;20.40;71.40
39777;DHT22;25453;48.162;14.510;2023-09-12T01:43:23;20.40;71.40
39777;DHT22;25453;48.162;14.510;2023-09-12T01:45:54;20.40;71.60
39777;DHT22;25453;48.162;14.510;2023-09-12T01:48:25;20.40;71.80
39777;DHT22;25453;48.162;14.510;2023-09-12T01:50:54;20.40;71.70
39777;DHT22;25453;48.162;14.510;2023-09-12T01:53:21;20.40;71.80
39777;DHT22;25453;48.162;14.510;2023-09-12T01:55:49;20.40;71.80
39777;DHT22;25453;48.162;14.510;2023-09-12T01:58:16;20.40;71.80
39777;DHT22;25453;48.162;14.510;2023-09-12T02:00:44;20.30;71.70
39777;DHT22;25453;48.162;14.510;2023-09-12T02:03:11;20.30;71.80
39777;DHT22;25453;48.162;14.510;2023-09-12T02:05:39;20.30;71.70
39777;DHT22;25453;48.162;14.510;2023-09-12T02:08:07;20.30;71.70
39777;DHT22;25453;48.162;14.510;2023-09-12T02:10:34;20.30;71.90
39777;DHT22;25453;48.162;14.510;2023-09-12T02:13:02;20.30;72.00
39777;DHT22;25453;48.162;14.510;2023-09-12T02:15:29;20.40;72.10
39777;DHT22;25453;48.162;14.510;2023-09-12T02:17:56;20.50;72.00
39777;DHT22;25453;48.162;14.510;2023-09-12T02:20:25;20.50;71.60
39777;DHT22;25453;48.162;14.510;2023-09-12T02:22:52;20.50;71.40
39777;DHT22;25453;48.162;14.510;2023-09-12T02:25:20;20.50;71.20
39777;DHT22;25453;48.162;14.510;2023-09-12T02:27:47;20.40;71.40
39777;DHT22;25453;48.162;14.510;2023-09-12T02:30:14;20.40;71.20
39777;DHT22;25453;48.162;14.510;2023-09-12T02:32:42;20.50;71.40
39777;DHT22;25453;48.162;14.510;2023-09-12T02:35:10;20.50;71.40
39777;DHT22;25453;48.162;14.510;2023-09-12T02:37:37;20.50;71.20
39777;DHT22;25453;48.162;14.510;2023-09-12T02:40:05;20.50;71.10
39777;DHT22;25453;48.162;14.510;2023-09-12T02:42:33;20.40;71.10
39777;DHT22;25453;48.162;14.510;2023-09-12T02:45:00;20.40;71.20
39777;DHT22;25453;48.162;14.510;2023-09-12T02:47:27;20.40;71.20
39777;DHT22;25453;48.162;14.510;2023-09-12T02:49:55;20.30;71.30
39777;DHT22;25453;48.162;14.510;2023-09-12T02:52:22;20.30;71.50
39777;DHT22;25453;48.162;14.510;2023-09-12T02:54:49;20.30;71.50
39777;DHT22;25453;48.162;14.510;2023-09-12T02:57:16;20.30;71.50
39777;DHT22;25453;48.162;14.510;2023-09-12T02:59:44;20.20;71.50
39777;DHT22;25453;48.162;14.510;2023-09-12T03:02:11;20.20;71.50
39777;DHT22;25453;48.162;14.510;2023-09-12T03:04:38;20.20;71.60
39777;DHT22;25453;48.162;14.510;2023-09-12T03:07:05;20.20;71.50
39777;DHT22;25453;48.162;14.510;2023-09-12T03:09:32;20.20;71.60
39777;DHT22;25453;48.162;14.510;2023-09-12T03:12:04;20.20;71.90
39777;DHT22;25453;48.162;14.510;2023-09-12T03:14:31;20.30;71.60
39777;DHT22;25453;48.162;14.510;2023-09-12T03:16:59;20.30;71.40
39777;DHT22;25453;48.162;14.510;2023-09-12T03:19:26;20.30;71.50
39777;DHT22;25453;48.162;14.510;2023-09-12T03:21:53;20.40;71.60
39777;DHT22;25453;48.162;14.510;2023-09-12T03:24:20;20.40;71.40
39777;DHT22;25453;48.162;14.510;2023-09-12T03:26:51;20.40;71.10
39777;DHT22;25453;48.162;14.510;2023-09-12T03:29:18;20.50;71.10
39777;DHT22;25453;48.162;14.510;2023-09-12T03:31:46;20.50;70.70
39777;DHT22;25453;48.162;14.510;2023-09-12T03:34:13;20.40;70.40
39777;DHT22;25453;48.162;14.510;2023-09-12T03:36:40;20.40;70.70
39777;DHT22;25453;48.162;14.510;2023-09-12T03:39:07;20.40;70.60
39777;DHT22;25453;48.162;14.510;2023-09-12T03:41:35;20.30;70.30
39777;DHT22;25453;48.162;14.510;2023-09-12T03:44:03;20.30;70.50
39777;DHT22;25453;48.162;14.510;2023-09-12T03:46:30;20.30;70.70
39777;DHT22;25453;48.162;14.510;2023-09-12T03:48:57;20.30;70.60
39777;DHT22;25453;48.162;14.510;2023-09-12T03:51:25;20.40;70.60
39777;DHT22;25453;48.162;14.510;2023-09-12T03:53:52;20.40;70.40
39777;DHT22;25453;48.162;14.510;2023-09-12T03:56:19;20.40;69.90
39777;DHT22;25453;48.162;14.510;2023-09-12T03:58:47;20.30;69.70
39777;DHT22;25453;48.162;14.510;2023-09-12T04:01:14;20.20;69.70
39777;DHT22;25453;48.162;14.510;2023-09-12T04:03:41;20.10;69.70
39777;DHT22;25453;48.162;14.510;2023-09-12T04:06:09;20.00;69.90
39777;DHT22;25453;48.162;14.510;2023-09-12T04:08:36;19.90;70.10
39777;DHT22;25453;48.162;14.510;2023-09-12T04:11:03;19.90;70.10
39777;DHT22;25453;48.162;14.510;2023-09-12T04:13:31;19.80;70.40
39777;DHT22;25453;48.162;14.510;2023-09-12T04:15:58;19.80;70.40
39777;DHT22;25453;48.162;14.510;2023-09-12T04:18:26;19.70;70.50
39777;DHT22;25453;48.162;14.510;2023-09-12T04:20:53;19.70;70.60
39777;DHT22;25453;48.162;14.510;2023-09-12T04:23:25;19.70;70.90
39777;DHT22;25453;48.162;14.510;2023-09-12T04:25:52;19.80;71.00
39777;DHT22;25453;48.162;14.510;2023-09-12T04:28:19;19.90;70.80
39777;DHT22;25453;48.162;14.510;2023-09-12T04:30:47;19.90;70.70
39777;DHT22;25453;48.162;14.510;2023-09-12T04:33:14;19.90;70.60
39777;DHT22;25453;48.162;14.510;2023-09-12T04:35:41;19.90;70.60
39777;DHT22;25453;48.162;14.510;2023-09-12T04:38:08;20.00;70.40
39777;DHT22;25453;48.162;14.510;2023-09-12T04:40:35;20.00;70.40
39777;DHT22;25453;48.162;14.510;2023-09-12T04:43:03;20.00;70.50
39777;DHT22;25453;48.162;14.510;2023-09-12T04:45:33;20.00;70.40
39777;DHT22;25453;48.162;14.510;2023-09-12T04:48:00;20.10;70.30
39777;DHT22;25453;48.162;14.510;2023-09-12T04:50:27;20.10;70.00
39777;DHT22;25453;48.162;14.510;2023-09-12T04:52:54;20.00;70.00
39777;DHT22;25453;48.162;14.510;2023-09-12T04:55:22;20.00;69.90
39777;DHT22;25453;48.162;14.510;2023-09-12T04:57:49;19.90;69.80
39777;DHT22;25453;48.162;14.510;2023-09-12T05:00:16;19.90;69.90
39777;DHT22;25453;48.162;14.510;2023-09-12T05:02:44;19.80;69.90
39777;DHT22;25453;48.162;14.510;2023-09-12T05:05:11;19.80;70.10
39777;DHT22;25453;48.162;14.510;2023-09-12T05:07:38;19.70;70.10
39777;DHT22;25453;48.162;14.510;2023-09-12T05:10:06;19.70;70.40
39777;DHT22;25453;48.162;14.510;2023-09-12T05:12:33;19.60;70.50
39777;DHT22;25453;48.162;14.510;2023-09-12T05:15:00;19.60;70.60
39777;DHT22;25453;48.162;14.510;2023-09-12T05:17:27;19.60;70.80
39777;DHT22;25453;48.162;14.510;2023-09-12T05:19:55;19.60;71.00
39777;DHT22;25453;48.162;14.510;2023-09-12T05:22:22;19.70;71.30
39777;DHT22;25453;48.162;14.510;2023-09-12T05:24:49;19.70;71.20
39777;DHT22;25453;48.162;14.510;2023-09-12T05:27:16;19.70;71.10
39777;DHT22;25453;48.162;14.510;2023-09-12T05:29:43;19.70;71.10
39777;DHT22;25453;48.162;14.510;2023-09-12T05:32:11;19.70;71.10
39777;DHT22;25453;48.162;14.510;2023-09-12T05:34:38;19.80;71.30
39777;DHT22;25453;48.162;14.510;2023-09-12T05:37:05;19.80;71.30
39777;DHT22;25453;48.162;14.510;2023-09-12T05:39:33;19.80;71.30
39777;DHT22;25453;48.162;14.510;2023-09-12T05:42:02;19.80;71.40
39777;DHT22;25453;48.162;14.510;2023-09-12T05:44:30;19.80;71.50
39777;DHT22;25453;48.162;14.510;2023-09-12T05:46:57;19.90;71.60
39777;DHT22;25453;48.162;14.510;2023-09-12T05:49:24;19.90;71.70
39777;DHT22;25453;48.162;14.510;2023-09-12T05:51:51;19.90;71.90
39777;DHT22;25453;48.162;14.510;2023-09-12T05:54:18;20.10;72.00
39777;DHT22;25453;48.162;14.510;2023-09-12T05:56:46;20.10;71.80
39777;DHT22;25453;48.162;14.510;2023-09-12T05:59:15;20.20;71.80
39777;DHT22;25453;48.162;14.510;2023-09-12T06:01:42;20.20;71.90
39777;DHT22;25453;48.162;14.510;2023-09-12T06:04:10;20.30;72.10
39777;DHT22;25453;48.162;14.510;2023-09-12T06:06:37;20.40;72.20
39777;DHT22;25453;48.162;14.510;2023-09-12T06:09:06;20.40;72.20
39777;DHT22;25453;48.162;14.510;2023-09-12T06:11:33;20.50;72.30
39777;DHT22;25453;48.162;14.510;2023-09-12T06:14:00;20.50;72.40
39777;DHT22;25453;48.162;14.510;2023-09-12T06:16:28;20.60;72.60
39777;DHT22;25453;48.162;14.510;2023-09-12T06:18:55;20.70;72.60
39777;DHT22;25453;48.162;14.510;2023-09-12T06:21:22;20.80;72.60
39777;DHT22;25453;48.162;14.510;2023-09-12T06:24:28;20.90;72.50
39777;DHT22;25453;48.162;14.510;2023-09-12T06:26:58;20.90;72.50
39777;DHT22;25453;48.162;14.510;2023-09-12T06:29:25;21.00;72.50
39777;DHT22;25453;48.162;14.510;2023-09-12T06:31:52;21.00;72.40
39777;DHT22;25453;48.162;14.510;2023-09-12T06:34:20;21.00;72.60
39777;DHT22;25453;48.162;14.510;2023-09-12T06:36:47;21.10;72.80
39777;DHT22;25453;48.162;14.510;2023-09-12T06:39:15;21.10;72.70
39777;DHT22;25453;48.162;14.510;2023-09-12T06:41:42;21.10;72.80
39777;DHT22;25453;48.162;14.510;2023-09-12T06:44:09;21.20;72.80
39777;DHT22;25453;48.162;14.510;2023-09-12T06:46:37;21.20;73.00
39777;DHT22;25453;48.162;14.510;2023-09-12T06:49:05;21.30;72.80
39777;DHT22;25453;48.162;14.510;2023-09-12T06:51:32;21.30;73.00
39777;DHT22;25453;48.162;14.510;2023-09-12T06:54:04;21.30;72.80
39777;DHT22;25453;48.162;14.510;2023-09-12T06:56:31;21.40;72.90
39777;DHT22;25453;48.162;14.510;2023-09-12T06:58:59;21.40;73.10
39777;DHT22;25453;48.162;14.510;2023-09-12T07:01:26;21.40;73.20
39777;DHT22;25453;48.162;14.510;2023-09-12T07:03:53;21.50;73.20
39777;DHT22;25453;48.162;14.510;2023-09-12T07:06:23;21.60;73.20
39777;DHT22;25453;48.162;14.510;2023-09-12T07:08:50;21.60;73.20
39777;DHT22;25453;48.162;14.510;2023-09-12T07:11:20;21.70;73.20
39777;DHT22;25453;48.162;14.510;2023-09-12T07:13:47;21.70;73.20
39777;DHT22;25453;48.162;14.510;2023-09-12T07:16:17;21.80;73.00
39777;DHT22;25453;48.162;14.510;2023-09-12T07:18:44;21.90;72.90
39777;DHT22;25453;48.162;14.510;2023-09-12T07:21:11;22.00;72.90
39777;DHT22;25453;48.162;14.510;2023-09-12T07:23:39;22.00;72.90
39777;DHT22;25453;48.162;14.510;2023-09-12T07:26:12;22.10;72.90
39777;DHT22;25453;48.162;14.510;2023-09-12T07:28:41;22.10;73.00
39777;DHT22;25453;48.162;14.510;2023-09-12T07:31:08;22.10;72.90
39777;DHT22;25453;48.162;14.510;2023-09-12T07:33:35;22.20;72.90
39777;DHT22;25453;48.162;14.510;2023-09-12T07:36:03;22.20;72.90
39777;DHT22;25453;48.162;14.510;2023-09-12T07:38:30;22.30;72.90
39777;DHT22;25453;48.162;14.510;2023-09-12T07:41:02;22.30;73.00
39777;DHT22;25453;48.162;14.510;2023-09-12T07:43:30;22.30;73.00
39777;DHT22;25453;48.162;14.510;2023-09-12T07:45:58;22.40;73.20
39777;DHT22;25453;48.162;14.510;2023-09-12T07:48:26;22.40;73.20
39777;DHT22;25453;48.162;14.510;2023-09-12T07:50:54;22.50;73.10
39777;DHT22;25453;48.162;14.510;2023-09-12T07:53:21;22.60;73.00
39777;DHT22;25453;48.162;14.510;2023-09-12T07:55:50;22.60;72.90
39777;DHT22;25453;48.162;14.510;2023-09-12T07:58:18;22.70;72.80
39777;DHT22;25453;48.162;14.510;2023-09-12T08:00:51;22.80;72.90
39777;DHT22;25453;48.162;14.510;2023-09-12T08:03:18;22.80;72.90
39777;DHT22;25453;48.162;14.510;2023-09-12T08:05:55;22.90;72.90
39777;DHT22;25453;48.162;14.510;2023-09-12T08:08:23;22.90;72.80
39777;DHT22;25453;48.162;14.510;2023-09-12T08:10:50;23.00;72.80
39777;DHT22;25453;48.162;14.510;2023-09-12T08:13:17;23.10;72.70
39777;DHT22;25453;48.162;14.510;2023-09-12T08:15:44;23.20;72.70
39777;DHT22;25453;48.162;14.510;2023-09-12T08:18:12;23.30;72.60
39777;DHT22;25453;48.162;14.510;2023-09-12T08:20:39;23.40;72.50
39777;DHT22;25453;48.162;14.510;2023-09-12T08:23:06;23.50;72.40
39777;DHT22;25453;48.162;14.510;2023-09-12T08:25:33;23.60;72.30
39777;DHT22;25453;48.162;14.510;2023-09-12T08:28:00;23.70;72.30
39777;DHT22;25453;48.162;14.510;2023-09-12T08:30:28;23.80;72.10
39777;DHT22;25453;48.162;14.510;2023-09-12T08:32:58;24.00;72.00
39777;DHT22;25453;48.162;14.510;2023-09-12T08:35:26;24.10;72.00
39777;DHT22;25453;48.162;14.510;2023-09-12T08:37:53;24.20;71.80
39777;DHT22;25453;48.162;14.510;2023-09-12T08:40:20;24.30;71.40
39777;DHT22;25453;48.162;14.510;2023-09-12T08:42:48;24.40;71.20
39777;DHT22;25453;48.162;14.510;2023-09-12T08:45:20;24.50;71.00
39777;DHT22;25453;48.162;14.510;2023-09-12T08:47:53;24.60;70.70
39777;DHT22;25453;48.162;14.510;2023-09-12T08:50:22;24.70;70.40
39777;DHT22;25453;48.162;14.510;2023-09-12T08:52:55;24.80;70.20
39777;DHT22;25453;48.162;14.510;2023-09-12T08:55:35;24.90;69.90
39777;DHT22;25453;48.162;14.510;2023-09-12T08:58:04;25.00;69.70
39777;DHT22;25453;48.162;14.510;2023-09-12T09:00:33;25.10;69.60
39777;DHT22;25453;48.162;14.510;2023-09-12T09:03:01;25.10;69.40
39777;DHT22;25453;48.162;14.510;2023-09-12T09:05:30;25.20;69.30
39777;DHT22;25453;48.162;14.510;2023-09-12T09:07:59;25.30;69.30
39777;DHT22;25453;48.162;14.510;2023-09-12T09:10:27;25.40;69.20
39777;DHT22;25453;48.162;14.510;2023-09-12T09:13:16;25.50;68.90
39777;DHT22;25453;48.162;14.510;2023-09-12T09:15:43;25.70;68.70
39777;DHT22;25453;48.162;14.510;2023-09-12T09:18:11;25.80;68.50
39777;DHT22;25453;48.162;14.510;2023-09-12T09:20:40;25.90;68.00
39777;DHT22;25453;48.162;14.510;2023-09-12T09:23:16;26.10;67.50
39777;DHT22;25453;48.162;14.510;2023-09-12T09:25:52;26.20;67.00
39777;DHT22;25453;48.162;14.510;2023-09-12T09:28:23;26.40;66.50
39777;DHT22;25453;48.162;14.510;2023-09-12T09:30:52;26.50;66.10
39777;DHT22;25453;48.162;14.510;2023-09-12T09:33:22;26.60;65.80
39777;DHT22;25453;48.162;14.510;2023-09-12T09:35:50;26.70;65.20
39777;DHT22;25453;48.162;14.510;2023-09-12T09:38:22;26.80;65.00
39777;DHT22;25453;48.162;14.510;2023-09-12T09:40:50;26.90;64.70
39777;DHT22;25453;48.162;14.510;2023-09-12T09:43:21;26.90;64.60
39777;DHT22;25453;48.162;14.510;2023-09-12T09:45:48;27.00;64.30
39777;DHT22;25453;48.162;14.510;2023-09-12T09:48:21;27.00;64.20
39777;DHT22;25453;48.162;14.510;2023-09-12T09:50:49;27.00;63.90
39777;DHT22;25453;48.162;14.510;2023-09-12T09:53:16;27.10;63.50
39777;DHT22;25453;48.162;14.510;2023-09-12T09:55:44;27.10;63.20
39777;DHT22;25453;48.162;14.510;2023-09-12T09:58:17;27.10;63.10
39777;DHT22;25453;48.162;14.510;2023-09-12T10:00:45;27.20;63.20
39777;DHT22;25453;48.162;14.510;2023-09-12T10:03:18;27.20;63.20
39777;DHT22;25453;48.162;14.510;2023-09-12T10:05:49;27.30;62.80
39777;DHT22;25453;48.162;14.510;2023-09-12T10:08:17;27.30;62.50
39777;DHT22;25453;48.162;14.510;2023-09-12T10:10:47;27.40;62.30
39777;DHT22;25453;48.162;14.510;2023-09-12T10:13:15;27.50;61.90
39777;DHT22;25453;48.162;14.510;2023-09-12T10:15:44;27.60;62.00
39777;DHT22;25453;48.162;14.510;2023-09-12T10:18:22;27.70;62.10
39777;DHT22;25453;48.162;14.510;2023-09-12T10:21:14;27.70;61.80
39777;DHT22;25453;48.162;14.510;2023-09-12T10:23:46;27.80;61.40
39777;DHT22;25453;48.162;14.510;2023-09-12T10:26:18;28.00;61.20
39777;DHT22;25453;48.162;14.510;2023-09-12T10:28:50;28.00;60.80
39777;DHT22;25453;48.162;14.510;2023-09-12T10:31:19;28.10;60.60
39777;DHT22;25453;48.162;14.510;2023-09-12T10:33:46;28.20;60.70
39777;DHT22;25453;48.162;14.510;2023-09-12T10:36:18;28.30;60.80
39777;DHT22;25453;48.162;14.510;2023-09-12T10:38:48;28.50;60.90
39777;DHT22;25453;48.162;14.510;2023-09-12T10:41:16;28.60;60.70
39777;DHT22;25453;48.162;14.510;2023-09-12T10:43:45;28.80;60.50
39777;DHT22;25453;48.162;14.510;2023-09-12T10:46:17;28.90;60.30
39777;DHT22;25453;48.162;14.510;2023-09-12T10:48:45;29.00;59.80
39777;DHT22;25453;48.162;14.510;2023-09-12T10:51:13;29.10;59.70
39777;DHT22;25453;48.162;14.510;2023-09-12T10:53:56;29.20;59.60
39777;DHT22;25453;48.162;14.510;2023-09-12T10:56:23;29.40;58.80
39777;DHT22;25453;48.162;14.510;2023-09-12T11:01:34;29.70;57.90
39777;DHT22;25453;48.162;14.510;2023-09-12T11:06:47;30.10;56.80
39777;DHT22;25453;48.162;14.510;2023-09-12T11:09:23;30.30;56.40
39777;DHT22;25453;48.162;14.510;2023-09-12T11:11:58;30.60;55.90
39777;DHT22;25453;48.162;14.510;2023-09-12T11:14:25;30.80;54.90
39777;DHT22;25453;48.162;14.510;2023-09-12T11:19:48;31.20;53.20
39777;DHT22;25453;48.162;14.510;2023-09-12T11:22:29;31.30;52.50
39777;DHT22;25453;48.162;14.510;2023-09-12T11:25:01;31.50;52.10
39777;DHT22;25453;48.162;14.510;2023-09-12T11:27:44;31.60;51.60
39777;DHT22;25453;48.162;14.510;2023-09-12T11:30:12;31.80;51.00
39777;DHT22;25453;48.162;14.510;2023-09-12T11:32:40;31.90;50.60
39777;DHT22;25453;48.162;14.510;2023-09-12T11:35:10;32.00;50.00
39777;DHT22;25453;48.162;14.510;2023-09-12T11:37:38;32.00;49.60
39777;DHT22;25453;48.162;14.510;2023-09-12T11:42:41;32.10;49.20
39777;DHT22;25453;48.162;14.510;2023-09-12T11:45:10;32.10;49.20
39777;DHT22;25453;48.162;14.510;2023-09-12T11:47:41;32.10;48.90
39777;DHT22;25453;48.162;14.510;2023-09-12T11:53:04;32.20;48.60
39777;DHT22;25453;48.162;14.510;2023-09-12T11:55:37;32.20;48.40
39777;DHT22;25453;48.162;14.510;2023-09-12T11:58:06;32.20;48.50
39777;DHT22;25453;48.162;14.510;2023-09-12T12:00:33;32.20;48.80
39777;DHT22;25453;48.162;14.510;2023-09-12T12:03:00;32.10;49.00
39777;DHT22;25453;48.162;14.510;2023-09-12T12:05:28;32.00;48.90
39777;DHT22;25453;48.162;14.510;2023-09-12T12:07:56;32.00;49.00
39777;DHT22;25453;48.162;14.510;2023-09-12T12:10:43;31.90;48.50
39777;DHT22;25453;48.162;14.510;2023-09-12T12:13:17;31.90;48.30
39777;DHT22;25453;48.162;14.510;2023-09-12T12:15:45;31.90;48.30
39777;DHT22;25453;48.162;14.510;2023-09-12T12:18:14;31.90;48.20
39777;DHT22;25453;48.162;14.510;2023-09-12T12:20:41;31.90;47.90
39777;DHT22;25453;48.162;14.510;2023-09-12T12:23:09;31.80;47.70
39777;DHT22;25453;48.162;14.510;2023-09-12T12:25:36;31.80;47.70
39777;DHT22;25453;48.162;14.510;2023-09-12T12:28:03;31.70;48.10
39777;DHT22;25453;48.162;14.510;2023-09-12T12:30:32;31.70;48.30
39777;DHT22;25453;48.162;14.510;2023-09-12T12:33:02;31.70;48.20
39777;DHT22;25453;48.162;14.510;2023-09-12T12:36:03;31.70;48.00
39777;DHT22;25453;48.162;14.510;2023-09-12T12:38:35;31.70;47.60
39777;DHT22;25453;48.162;14.510;2023-09-12T12:41:27;31.70;47.50
39777;DHT22;25453;48.162;14.510;2023-09-12T12:44:09;31.70;47.50
39777;DHT22;25453;48.162;14.510;2023-09-12T12:46:51;31.70;47.60
39777;DHT22;25453;48.162;14.510;2023-09-12T12:49:21;31.60;47.90
39777;DHT22;25453;48.162;14.510;2023-09-12T12:51:50;31.50;48.10
39777;DHT22;25453;48.162;14.510;2023-09-12T12:54:22;31.50;48.30
39777;DHT22;25453;48.162;14.510;2023-09-12T12:56:50;31.40;48.40
39777;DHT22;25453;48.162;14.510;2023-09-12T12:59:19;31.40;48.50
39777;DHT22;25453;48.162;14.510;2023-09-12T13:01:47;31.30;48.50
39777;DHT22;25453;48.162;14.510;2023-09-12T13:04:17;31.10;48.40
39777;DHT22;25453;48.162;14.510;2023-09-12T13:06:44;31.00;48.40
39777;DHT22;25453;48.162;14.510;2023-09-12T13:09:13;30.90;48.50
39777;DHT22;25453;48.162;14.510;2023-09-12T13:11:40;30.80;48.70
39777;DHT22;25453;48.162;14.510;2023-09-12T13:14:09;30.80;49.10
39777;DHT22;25453;48.162;14.510;2023-09-12T13:16:39;30.80;49.20
39777;DHT22;25453;48.162;14.510;2023-09-12T13:19:09;30.80;49.30
39777;DHT22;25453;48.162;14.510;2023-09-12T13:21:38;30.80;49.30
39777;DHT22;25453;48.162;14.510;2023-09-12T13:24:06;30.70;49.30
39777;DHT22;25453;48.162;14.510;2023-09-12T13:26:33;30.70;49.30
39777;DHT22;25453;48.162;14.510;2023-09-12T13:29:01;30.70;49.30
39777;DHT22;25453;48.162;14.510;2023-09-12T13:31:28;30.70;49.40
39777;DHT22;25453;48.162;14.510;2023-09-12T13:33:55;30.70;49.20
39777;DHT22;25453;48.162;14.510;2023-09-12T13:36:23;30.60;49.10
39777;DHT22;25453;48.162;14.510;2023-09-12T13:38:52;30.50;49.10
39777;DHT22;25453;48.162;14.510;2023-09-12T13:41:19;30.50;49.10
39777;DHT22;25453;48.162;14.510;2023-09-12T13:43:47;30.50;49.10
39777;DHT22;25453;48.162;14.510;2023-09-12T13:46:15;30.50;49.10
39777;DHT22;25453;48.162;14.510;2023-09-12T13:48:43;30.50;48.80
39777;DHT22;25453;48.162;14.510;2023-09-12T13:51:13;30.40;48.60
39777;DHT22;25453;48.162;14.510;2023-09-12T13:53:40;30.40;48.60
39777;DHT22;25453;48.162;14.510;2023-09-12T13:56:08;30.30;48.70
39777;DHT22;25453;48.162;14.510;2023-09-12T13:58:42;30.30;48.70
39777;DHT22;25453;48.162;14.510;2023-09-12T14:01:18;30.30;48.80
39777;DHT22;25453;48.162;14.510;2023-09-12T14:04:01;30.20;48.80
39777;DHT22;25453;48.162;14.510;2023-09-12T14:06:29;30.20;48.80
39777;DHT22;25453;48.162;14.510;2023-09-12T14:08:57;30.10;48.70
39777;DHT22;25453;48.162;14.510;2023-09-12T14:11:25;30.00;48.70
39777;DHT22;25453;48.162;14.510;2023-09-12T14:14:02;29.90;49.30
39777;DHT22;25453;48.162;14.510;2023-09-12T14:16:32;29.90;49.50
39777;DHT22;25453;48.162;14.510;2023-09-12T14:19:00;29.90;49.30
39777;DHT22;25453;48.162;14.510;2023-09-12T14:21:27;29.80;49.10
39777;DHT22;25453;48.162;14.510;2023-09-12T14:23:56;29.80;48.90
39777;DHT22;25453;48.162;14.510;2023-09-12T14:26:24;29.70;48.80
39777;DHT22;25453;48.162;14.510;2023-09-12T14:28:51;29.60;48.80
39777;DHT22;25453;48.162;14.510;2023-09-12T14:31:20;29.50;48.70
39777;DHT22;25453;48.162;14.510;2023-09-12T14:33:49;29.40;48.70
39777;DHT22;25453;48.162;14.510;2023-09-12T14:36:19;29.30;49.00
39777;DHT22;25453;48.162;14.510;2023-09-12T14:38:46;29.20;49.00
39777;DHT22;25453;48.162;14.510;2023-09-12T14:41:13;29.10;49.10
39777;DHT22;25453;48.162;14.510;2023-09-12T14:43:41;28.90;49.50
39777;DHT22;25453;48.162;14.510;2023-09-12T14:46:08;28.80;49.80
39777;DHT22;25453;48.162;14.510;2023-09-12T14:48:37;28.70;50.30
39777;DHT22;25453;48.162;14.510;2023-09-12T14:51:09;28.60;50.70
39777;DHT22;25453;48.162;14.510;2023-09-12T14:53:38;28.50;51.00
39777;DHT22;25453;48.162;14.510;2023-09-12T14:56:11;28.40;51.10
39777;DHT22;25453;48.162;14.510;2023-09-12T14:58:38;28.40;51.70
39777;DHT22;25453;48.162;14.510;2023-09-12T15:01:05;28.30;52.10
39777;DHT22;25453;48.162;14.510;2023-09-12T15:03:33;28.20;52.50
39777;DHT22;25453;48.162;14.510;2023-09-12T15:06:06;28.20;52.60
39777;DHT22;25453;48.162;14.510;2023-09-12T15:08:33;28.10;53.10
39777;DHT22;25453;48.162;14.510;2023-09-12T15:11:03;28.10;53.60
39777;DHT22;25453;48.162;14.510;2023-09-12T15:13:32;28.10;53.50
39777;DHT22;25453;48.162;14.510;2023-09-12T15:15:59;28.20;53.20
39777;DHT22;25453;48.162;14.510;2023-09-12T15:18:27;28.20;53.20
39777;DHT22;25453;48.162;14.510;2023-09-12T15:20:54;28.20;53.00
39777;DHT22;25453;48.162;14.510;2023-09-12T15:23:21;28.20;52.70
39777;DHT22;25453;48.162;14.510;2023-09-12T15:25:50;28.30;52.40
39777;DHT22;25453;48.162;14.510;2023-09-12T15:28:18;28.30;52.20
39777;DHT22;25453;48.162;14.510;2023-09-12T15:30:45;28.30;52.00
39777;DHT22;25453;48.162;14.510;2023-09-12T15:33:12;28.30;51.80
39777;DHT22;25453;48.162;14.510;2023-09-12T15:35:40;28.30;51.60
39777;DHT22;25453;48.162;14.510;2023-09-12T15:38:07;28.20;51.40
39777;DHT22;25453;48.162;14.510;2023-09-12T15:40:34;28.20;51.30
39777;DHT22;25453;48.162;14.510;2023-09-12T15:43:02;28.20;51.30
39777;DHT22;25453;48.162;14.510;2023-09-12T15:45:49;28.10;51.20